createdAt,value
2022-10-22T17:31:55.000Z,27.50
2022-10-22T17:34:49.432Z,38.22
2022-10-22T17:42:12.692Z,8.75
2022-10-22T17:44:40.567Z,10.77
2022-10-22T17:47:08.436Z,10.35
2022-10-22T17:49:36.262Z,11.57
2022-10-22T17:52:10.825Z,24.45
2022-10-22T17:54:39.409Z,26.20
2022-10-22T18:00:40.583Z,108.37
2022-10-22T18:03:14.668Z,72.43
2022-10-22T18:05:45.308Z,48.72
2022-10-22T18:08:14.692Z,35.35
2022-10-22T18:16:42.742Z,29.17
2022-10-22T18:19:22.851Z,31.33
2022-10-22T18:22:30.057Z,66.35
2022-10-22T18:27:56.566Z,32.08
2022-10-22T18:33:48.317Z,34.85
2022-10-22T18:37:00.753Z,38.28
2022-10-22T18:39:41.119Z,33.50
2022-10-22T18:42:31.158Z,33.20
2022-10-22T18:45:07.510Z,36.90
2022-10-22T18:47:48.026Z,39.13
2022-10-22T18:50:52.080Z,43.60
2022-10-22T18:53:35.475Z,36.05
2022-10-22T18:56:23.612Z,41.08
2022-10-22T19:01:49.336Z,56.22
2022-10-22T19:04:33.418Z,63.67
2022-10-22T19:07:13.304Z,62.58
2022-10-22T19:09:46.100Z,52.97
2022-10-22T19:12:19.222Z,58.63
2022-10-22T19:15:00.000Z,55.60
2022-10-22T19:17:55.975Z,54.03
2022-10-22T19:20:38.799Z,49.42
2022-10-22T19:23:27.332Z,66.03
2022-10-22T19:26:18.161Z,74.22
2022-10-22T19:28:51.093Z,60.58
2022-10-22T19:31:25.155Z,66.00
2022-10-22T19:34:11.191Z,71.78
2022-10-22T19:36:45.839Z,54.72
2022-10-22T19:39:29.410Z,44.70
2022-10-22T19:42:05.225Z,45.53
2022-10-22T19:44:43.123Z,47.28
2022-10-22T19:47:19.317Z,42.30
2022-10-22T19:56:18.744Z,57.03
2022-10-22T20:06:33.439Z,27.73
2022-10-22T20:10:26.222Z,33.70
2022-10-22T20:17:07.124Z,42.50
2022-10-22T20:19:45.371Z,32.28
2022-10-22T20:25:56.927Z,28.48
2022-10-22T20:28:44.056Z,32.30
2022-10-22T20:31:52.197Z,37.90
2022-10-22T20:34:57.547Z,30.35
2022-10-22T20:40:33.301Z,22.88
2022-10-22T20:43:12.463Z,32.47
2022-10-22T20:45:47.435Z,35.67
2022-10-22T20:48:42.519Z,26.48
2022-10-22T20:51:36.448Z,33.42
2022-10-22T20:55:02.483Z,43.13
2022-10-22T20:57:34.015Z,40.70
2022-10-22T21:00:10.587Z,36.38
2022-10-22T21:02:40.863Z,41.92
2022-10-22T21:05:23.052Z,37.78
2022-10-22T21:15:42.747Z,42.10
2022-10-22T21:18:20.737Z,32.63
2022-10-22T21:20:49.854Z,34.63
2022-10-22T21:23:25.287Z,33.92
2022-10-22T21:26:03.016Z,36.03
2022-10-22T21:28:41.440Z,34.70
2022-10-22T21:31:21.608Z,47.67
2022-10-22T21:33:55.922Z,50.75
2022-10-22T21:36:36.449Z,36.78
2022-10-22T21:42:13.140Z,44.72
2022-10-22T21:45:03.602Z,37.13
2022-10-22T21:47:41.329Z,35.42
2022-10-22T21:50:12.838Z,40.15
2022-10-22T21:52:48.701Z,38.10
2022-10-22T21:55:20.646Z,41.78
2022-10-22T21:57:56.603Z,56.65
2022-10-22T22:00:32.723Z,66.80
2022-10-22T22:03:08.329Z,66.03
2022-10-22T22:06:42.394Z,42.75
2022-10-22T22:21:42.882Z,31.05
2022-10-22T22:24:31.282Z,31.67
2022-10-22T22:27:01.970Z,27.35
2022-10-22T22:29:31.668Z,23.35
2022-10-22T22:32:14.472Z,37.15
2022-10-22T22:34:45.270Z,23.52
2022-10-22T22:37:17.857Z,29.58
2022-10-22T22:39:58.016Z,24.20
2022-10-22T22:45:03.245Z,24.42
2022-10-22T22:47:33.986Z,21.48
2022-10-22T22:50:08.309Z,23.00
2022-10-22T22:52:52.255Z,24.38
2022-10-22T22:55:21.507Z,22.85
2022-10-22T22:57:51.935Z,21.80
2022-10-22T23:00:21.589Z,23.20
2022-10-22T23:02:56.086Z,33.90
2022-10-22T23:05:24.785Z,31.52
2022-10-22T23:07:53.787Z,32.15
2022-10-22T23:10:25.390Z,43.17
2022-10-22T23:12:54.657Z,26.65
2022-10-22T23:15:27.497Z,25.13
2022-10-22T23:17:57.452Z,21.92
2022-10-22T23:22:57.280Z,21.30
2022-10-22T23:25:26.006Z,19.77
2022-10-22T23:27:56.784Z,28.73
2022-10-22T23:30:24.867Z,24.25
2022-10-22T23:32:53.535Z,24.77
2022-10-22T23:35:25.310Z,25.30
2022-10-22T23:37:56.184Z,24.23
2022-10-22T23:40:24.517Z,21.42
2022-10-22T23:42:54.474Z,22.90
2022-10-22T23:45:24.554Z,18.23
2022-10-22T23:47:52.791Z,21.45
2022-10-22T23:50:21.203Z,18.13
2022-10-22T23:52:52.082Z,18.40
2022-10-22T23:55:20.733Z,18.73
2022-10-22T23:57:49.367Z,17.80
